Current Weather

Václav Havel Intl Apt

Prague, Czechia (LKPR)

Report from: Saturday, June 22, 2024 2:30 AM CEST
Current time: Saturday, June 22, 2024 2:50 AM CEST

Nearby weather – Weather history – Daily summaries
Weather forecast

Present weatherRain showers
Temperature17.0°C (62.6°F)
Dew point16.0°C (60.8°F)
Winds 20 kts (10.3 m/s, 23 mph) West-Southwest (240°)
Visibility3.7 mi. (6 km)
Clouds Scattered clouds with cumulonimbus 1,500 ft. (457 m)
Ceiling: Broken clouds 4,000 ft. (1,219 m)
Altimeter29.94 in.Hg (1014 mB)
Relative humidity94 %
Density altitude460 ft. (140 m)
Remarks No significant changes expected in the next two hours
Flight conditions Marginal Visual Meteorological Conditions
Raw dataLKPR 220030Z 24020KT 6000 SHRA SCT015CB BKN040 17/16 Q1014 NOSIG
An error has occurred. This application may no longer respond until reloaded. Reload 🗙